Time;durP1;ratioP1;P1;durP2;ratioP2;P2;SDS_P1;SDS_P2;PMS_P1;PMS_P2;Temp;Humidity;BMP_temperature;BMP_pressure;BME280_temperature;BME280_humidity;BME280_pressure;Samples;Min_cycle;Max_cycle;Signal;HPM_P1;HPM_P2
2023/09/16 00:00:56;;;;;;;;;;;;;;;11.87;100.00;101423.38;5039187;28;19920;-71
2023/09/16 00:03:21;;;;;;;;;;;;;;;11.94;100.00;101421.91;5043424;28;19970;-71
2023/09/16 00:05:46;;;;;;;;;;;;;;;12.03;100.00;101415.06;5042293;28;20001;-71
2023/09/16 00:08:12;;;;;;;;;;;;;;;12.06;100.00;101412.09;5040575;28;20039;-71
2023/09/16 00:10:37;;;;;;;;;;;;;;;12.08;100.00;101410.16;5043168;28;19925;-71
2023/09/16 00:13:02;;;;;;;;;;;;;;;12.08;100.00;101411.03;5029275;28;19920;-71
2023/09/16 00:15:28;;;;;;;;;;;;;;;12.01;100.00;101407.06;5047570;28;19912;-71
2023/09/16 00:17:53;;;;;;;;;;;;;;;12.12;100.00;101406.25;5042970;28;19955;-71
2023/09/16 00:20:18;;;;;;;;;;;;;;;12.12;100.00;101401.75;5045468;28;20007;-73
2023/09/16 00:22:44;;;;;;;;;;;;;;;12.17;100.00;101400.56;5042664;28;19927;-73
2023/09/16 00:25:09;;;;;;;;;;;;;;;12.15;100.00;101403.34;5039503;28;19924;-73
2023/09/16 00:27:35;;;;;;;;;;;;;;;12.13;100.00;101399.91;5040655;28;19929;-73
2023/09/16 00:30:00;;;;;;;;;;;;;;;12.13;100.00;101406.16;5041154;28;19928;-73
2023/09/16 00:32:27;;;;;;;;;;;;;;;12.18;100.00;101402.28;5046143;28;19956;-73
2023/09/16 00:34:53;;;;;;;;;;;;;;;12.20;100.00;101403.84;5040535;28;20398;-73
2023/09/16 00:37:18;;;;;;;;;;;;;;;12.20;100.00;101401.16;5041313;28;19925;-73
2023/09/16 00:39:44;;;;;;;;;;;;;;;12.24;100.00;101399.97;5046289;28;20152;-73
2023/09/16 00:42:10;;;;;;;;;;;;;;;12.28;100.00;101400.56;5043935;28;19919;-73
2023/09/16 00:44:35;;;;;;;;;;;;;;;12.27;100.00;101399.72;5045194;28;19963;-73
2023/09/16 00:47:00;;;;;;;;;;;;;;;12.24;100.00;101397.28;5046230;28;19928;-73
2023/09/16 00:49:28;;;;;;;;;;;;;;;12.27;100.00;101402.44;5041004;28;19921;-73
2023/09/16 00:51:54;;;;;;;;;;;;;;;12.32;100.00;101398.50;5046201;28;20015;-73
2023/09/16 00:54:19;;;;;;;;;;;;;;;12.33;100.00;101406.47;5042655;28;20435;-72
2023/09/16 00:56:44;;;;;;;;;;;;;;;12.40;100.00;101401.47;5042253;28;20237;-73
2023/09/16 00:59:09;;;;;;;;;;;;;;;12.39;100.00;101397.94;5041061;28;19956;-73
2023/09/16 01:01:37;;;;;;;;;;;;;;;12.39;100.00;101402.44;5045431;28;20371;-73
2023/09/16 01:04:02;;;;;;;;;;;;;;;12.35;100.00;101399.13;5050344;28;19964;-73
2023/09/16 01:06:27;;;;;;;;;;;;;;;12.35;100.00;101401.84;5043652;28;20421;-73
2023/09/16 01:08:52;;;;;;;;;;;;;;;12.35;100.00;101404.53;5046246;28;20138;-73
2023/09/16 01:11:17;;;;;;;;;;;;;;;12.32;100.00;101403.88;5047533;28;20280;-73
2023/09/16 01:13:43;;;;;;;;;;;;;;;12.32;100.00;101390.41;5049203;28;20313;-73
2023/09/16 01:16:16;;;;;;;;;;;;;;;12.36;100.00;101390.09;5050785;28;20330;-73
2023/09/16 01:18:42;;;;;;;;;;;;;;;12.38;100.00;101396.22;5045164;28;20044;-73
2023/09/16 01:21:08;;;;;;;;;;;;;;;12.37;100.00;101391.81;5049660;28;21371;-73
2023/09/16 01:23:33;;;;;;;;;;;;;;;12.34;100.00;101381.25;5048099;28;20329;-73
2023/09/16 01:25:58;;;;;;;;;;;;;;;12.31;100.00;101378.81;5046544;28;20397;-73
2023/09/16 01:28:25;;;;;;;;;;;;;;;12.29;100.00;101384.31;5049557;28;19952;-73
2023/09/16 01:30:50;;;;;;;;;;;;;;;12.25;100.00;101376.56;5046094;28;20403;-73
2023/09/16 01:33:22;;;;;;;;;;;;;;;12.19;100.00;101374.34;5047894;28;19923;-73
2023/09/16 01:35:48;;;;;;;;;;;;;;;12.13;100.00;101370.28;5041279;28;20342;-73
2023/09/16 01:38:15;;;;;;;;;;;;;;;12.09;100.00;101376.88;5043650;28;19955;-73
2023/09/16 01:40:40;;;;;;;;;;;;;;;12.04;100.00;101374.56;5045722;28;19926;-73
2023/09/16 01:43:05;;;;;;;;;;;;;;;12.08;100.00;101372.47;5030171;28;20275;-73
2023/09/16 01:45:40;;;;;;;;;;;;;;;12.06;100.00;101366.34;5045561;28;20386;-73
2023/09/16 01:48:06;;;;;;;;;;;;;;;12.03;100.00;101369.28;5046420;28;19925;-72
2023/09/16 01:50:31;;;;;;;;;;;;;;;11.92;100.00;101368.22;5051518;28;19920;-73
2023/09/16 01:52:56;;;;;;;;;;;;;;;11.76;100.00;101349.69;5053396;28;19967;-73
2023/09/16 01:55:22;;;;;;;;;;;;;;;11.91;100.00;101371.91;5048019;28;19917;-73
2023/09/16 01:57:47;;;;;;;;;;;;;;;11.97;100.00;101381.31;5044034;28;19956;-73
2023/09/16 02:00:12;;;;;;;;;;;;;;;11.99;100.00;101374.03;5044804;28;19956;-73
2023/09/16 02:02:38;;;;;;;;;;;;;;;12.03;100.00;101377.38;5041509;28;19920;-73
2023/09/16 02:05:03;;;;;;;;;;;;;;;12.09;100.00;101372.38;5042777;28;19926;-73
2023/09/16 02:07:28;;;;;;;;;;;;;;;12.08;100.00;101373.34;5044344;28;19946;-73
2023/09/16 02:09:53;;;;;;;;;;;;;;;12.12;100.00;101374.84;5043812;28;19927;-73
2023/09/16 02:12:19;;;;;;;;;;;;;;;12.13;100.00;101364.91;5042130;28;19935;-73
2023/09/16 02:14:46;;;;;;;;;;;;;;;12.10;100.00;101371.41;5047473;28;20003;-73
2023/09/16 02:17:11;;;;;;;;;;;;;;;12.00;100.00;101376.63;5044374;28;19917;-73
2023/09/16 02:19:37;;;;;;;;;;;;;;;11.92;100.00;101372.78;5040566;28;19978;-73
2023/09/16 02:22:02;;;;;;;;;;;;;;;11.84;100.00;101366.13;5042434;28;19916;-73
2023/09/16 02:24:27;;;;;;;;;;;;;;;11.78;100.00;101371.94;5044067;28;19921;-73
2023/09/16 02:26:53;;;;;;;;;;;;;;;11.77;100.00;101362.16;5039088;28;20338;-73
2023/09/16 02:29:18;;;;;;;;;;;;;;;11.74;100.00;101361.53;5044018;28;20905;-73
2023/09/16 02:31:43;;;;;;;;;;;;;;;11.73;100.00;101368.75;5046866;28;19928;-72
2023/09/16 02:34:08;;;;;;;;;;;;;;;11.74;100.00;101367.78;5044890;28;19920;-72
2023/09/16 02:36:33;;;;;;;;;;;;;;;11.76;100.00;101364.97;5045367;28;19925;-72
2023/09/16 02:38:59;;;;;;;;;;;;;;;11.76;100.00;101365.81;5046151;28;19928;-72
2023/09/16 02:41:24;;;;;;;;;;;;;;;11.71;100.00;101365.31;5043929;28;20428;-72
2023/09/16 02:43:49;;;;;;;;;;;;;;;11.75;100.00;101363.25;5044284;28;20377;-72
2023/09/16 02:46:14;;;;;;;;;;;;;;;11.77;100.00;101364.84;5042409;28;19935;-72
2023/09/16 02:48:39;;;;;;;;;;;;;;;11.81;100.00;101366.34;5042927;28;19924;-72
2023/09/16 02:51:09;;;;;;;;;;;;;;;11.86;100.00;101357.91;5044557;28;19924;-72
2023/09/16 02:53:34;;;;;;;;;;;;;;;11.87;100.00;101361.50;5046351;28;19920;-72
2023/09/16 02:55:59;;;;;;;;;;;;;;;11.89;100.00;101357.69;5054123;28;19916;-72
2023/09/16 02:58:24;;;;;;;;;;;;;;;11.92;100.00;101357.47;5029262;28;19961;-72
2023/09/16 03:00:50;;;;;;;;;;;;;;;11.85;100.00;101353.50;5043890;28;19997;-71
2023/09/16 03:03:15;;;;;;;;;;;;;;;11.76;100.00;101349.69;5051951;28;19920;-72
2023/09/16 03:05:40;;;;;;;;;;;;;;;11.74;100.00;101350.78;5049616;28;20275;-72
2023/09/16 03:08:06;;;;;;;;;;;;;;;11.73;100.00;101349.91;5046552;28;20347;-71
2023/09/16 03:10:32;;;;;;;;;;;;;;;11.70;100.00;101350.13;5044761;28;19924;-72
2023/09/16 03:12:57;;;;;;;;;;;;;;;11.69;100.00;101346.59;5034070;28;19920;-72
2023/09/16 03:15:22;;;;;;;;;;;;;;;11.65;100.00;101342.41;5048511;28;19916;-72
2023/09/16 03:17:48;;;;;;;;;;;;;;;11.60;100.00;101347.28;5045765;28;19956;-72
2023/09/16 03:20:13;;;;;;;;;;;;;;;11.46;100.00;101344.75;5045182;28;20411;-72
2023/09/16 03:22:38;;;;;;;;;;;;;;;11.34;100.00;101357.28;5027773;28;19921;-72
2023/09/16 03:25:03;;;;;;;;;;;;;;;11.38;100.00;101356.94;5046115;28;20234;-72
2023/09/16 03:27:29;;;;;;;;;;;;;;;11.46;100.00;101350.97;5045502;28;20342;-72
2023/09/16 03:29:54;;;;;;;;;;;;;;;11.47;100.00;101352.69;5044068;28;19928;-72
2023/09/16 03:32:19;;;;;;;;;;;;;;;11.55;100.00;101346.75;5042634;28;20015;-72
2023/09/16 03:34:44;;;;;;;;;;;;;;;11.62;100.00;101342.66;5044936;28;20479;-72
2023/09/16 03:37:09;;;;;;;;;;;;;;;11.66;100.00;101343.25;5043472;28;19927;-72
2023/09/16 03:39:35;;;;;;;;;;;;;;;11.69;100.00;101327.78;5050510;28;19924;-72
2023/09/16 03:42:00;;;;;;;;;;;;;;;11.70;100.00;101325.94;5046919;28;19921;-72
2023/09/16 03:44:25;;;;;;;;;;;;;;;11.65;100.00;101328.13;5041837;28;19971;-72
2023/09/16 03:46:50;;;;;;;;;;;;;;;11.58;100.00;101333.09;5040986;28;19925;-72
2023/09/16 03:49:16;;;;;;;;;;;;;;;11.55;100.00;101325.25;5042217;28;19939;-72
2023/09/16 03:51:41;;;;;;;;;;;;;;;11.51;100.00;101329.16;5040470;28;19928;-72
2023/09/16 03:54:06;;;;;;;;;;;;;;;11.47;100.00;101323.13;5042193;28;20048;-72
2023/09/16 03:56:32;;;;;;;;;;;;;;;11.43;100.00;101318.09;5038223;28;19921;-72
2023/09/16 03:58:57;;;;;;;;;;;;;;;11.39;100.00;101317.44;5042887;28;20015;-72
2023/09/16 04:01:22;;;;;;;;;;;;;;;11.36;100.00;101315.00;5040637;28;19920;-72
2023/09/16 04:03:47;;;;;;;;;;;;;;;11.38;100.00;101329.19;5060752;28;19963;-72
2023/09/16 04:06:13;;;;;;;;;;;;;;;11.38;100.00;101321.97;5044411;28;20035;-72
2023/09/16 04:08:38;;;;;;;;;;;;;;;11.36;100.00;101323.06;5040256;28;20274;-72
2023/09/16 04:11:03;;;;;;;;;;;;;;;11.37;100.00;101330.19;5041066;28;20362;-72
2023/09/16 04:13:28;;;;;;;;;;;;;;;11.33;100.00;101318.75;5039584;28;20321;-72
2023/09/16 04:15:54;;;;;;;;;;;;;;;11.31;100.00;101320.72;5023194;28;19925;-72
2023/09/16 04:18:19;;;;;;;;;;;;;;;11.29;100.00;101324.50;5026561;28;20343;-72
2023/09/16 04:20:45;;;;;;;;;;;;;;;11.24;100.00;101325.69;5042146;28;19969;-72
2023/09/16 04:23:11;;;;;;;;;;;;;;;11.22;100.00;101329.47;5038504;28;19916;-72
2023/09/16 04:25:36;;;;;;;;;;;;;;;11.22;100.00;101324.94;5025383;28;19920;-72
2023/09/16 04:28:03;;;;;;;;;;;;;;;11.19;100.00;101333.22;5050653;28;19931;-72
2023/09/16 04:30:28;;;;;;;;;;;;;;;11.13;100.00;101330.97;5024624;28;19924;-72
2023/09/16 04:32:54;;;;;;;;;;;;;;;11.15;100.00;101329.03;5043848;28;20394;-72
2023/09/16 04:35:20;;;;;;;;;;;;;;;11.22;100.00;101332.16;5042619;28;20423;-72
2023/09/16 04:37:45;;;;;;;;;;;;;;;11.22;100.00;101326.78;5043731;28;20462;-72
2023/09/16 04:40:11;;;;;;;;;;;;;;;11.14;100.00;101332.69;5042129;28;19955;-72
2023/09/16 04:42:37;;;;;;;;;;;;;;;11.12;100.00;101329.28;5041506;28;19924;-72
2023/09/16 04:45:02;;;;;;;;;;;;;;;11.13;100.00;101319.38;5027639;28;20382;-71
2023/09/16 04:47:30;;;;;;;;;;;;;;;11.01;100.00;101302.31;5041709;28;19933;-72
2023/09/16 04:49:56;;;;;;;;;;;;;;;11.16;100.00;101321.84;5043899;28;19936;-72
2023/09/16 04:52:22;;;;;;;;;;;;;;;11.17;100.00;101323.56;5028755;28;19956;-72
2023/09/16 04:54:47;;;;;;;;;;;;;;;11.20;100.00;101321.50;5041248;28;19928;-72
2023/09/16 04:57:13;;;;;;;;;;;;;;;11.23;100.00;101317.75;5042266;28;19967;-72
2023/09/16 04:59:39;;;;;;;;;;;;;;;11.24;100.00;101323.00;5026091;28;20027;-72
2023/09/16 05:02:04;;;;;;;;;;;;;;;11.21;100.00;101317.00;5045294;28;20367;-72
2023/09/16 05:04:30;;;;;;;;;;;;;;;11.15;100.00;101312.06;5046657;28;20440;-72
2023/09/16 05:06:55;;;;;;;;;;;;;;;11.12;100.00;101313.16;5048953;28;20312;-71
2023/09/16 05:09:22;;;;;;;;;;;;;;;11.08;100.00;101327.78;5046236;28;19924;-72
2023/09/16 05:11:47;;;;;;;;;;;;;;;11.02;100.00;101323.69;5032739;28;19962;-72
2023/09/16 05:14:12;;;;;;;;;;;;;;;11.05;100.00;101325.31;5050903;28;20170;-72
2023/09/16 05:16:37;;;;;;;;;;;;;;;11.11;100.00;101327.56;5047346;28;19936;-72
2023/09/16 05:19:03;;;;;;;;;;;;;;;11.13;100.00;101319.38;5049276;28;19975;-72
2023/09/16 05:21:28;;;;;;;;;;;;;;;11.14;100.00;101318.41;5046775;28;19955;-72
2023/09/16 05:23:54;;;;;;;;;;;;;;;11.12;100.00;101323.91;5050643;28;20383;-72
2023/09/16 05:26:19;;;;;;;;;;;;;;;11.14;100.00;101326.47;5047424;28;20443;-72
2023/09/16 05:28:44;;;;;;;;;;;;;;;11.14;100.00;101321.94;5050419;28;20957;-72
2023/09/16 05:31:09;;;;;;;;;;;;;;;11.16;100.00;101319.16;5045517;28;20433;-72
2023/09/16 05:33:34;;;;;;;;;;;;;;;11.18;100.00;101325.28;5044560;28;19924;-72
2023/09/16 05:36:00;;;;;;;;;;;;;;;11.19;100.00;101324.31;5044464;28;19920;-72
2023/09/16 05:38:25;;;;;;;;;;;;;;;11.23;100.00;101328.50;5044485;28;19931;-72
2023/09/16 05:40:50;;;;;;;;;;;;;;;11.31;100.00;101325.25;5041402;28;20441;-72
2023/09/16 05:43:15;;;;;;;;;;;;;;;11.40;100.00;101328.09;5046304;28;20367;-72
2023/09/16 05:45:40;;;;;;;;;;;;;;;11.50;100.00;101322.91;5044858;28;19920;-72
2023/09/16 05:48:06;;;;;;;;;;;;;;;11.58;100.00;101327.69;5028392;28;19964;-72
2023/09/16 05:50:31;;;;;;;;;;;;;;;11.62;100.00;101329.19;5043874;28;20031;-72
2023/09/16 05:52:56;;;;;;;;;;;;;;;11.65;100.00;101325.44;5051205;28;19924;-72
2023/09/16 05:55:21;;;;;;;;;;;;;;;11.63;100.00;101322.84;5052974;28;19968;-72
2023/09/16 05:57:47;;;;;;;;;;;;;;;11.60;100.00;101333.84;5050518;28;20035;-72
2023/09/16 06:00:12;;;;;;;;;;;;;;;11.66;100.00;101328.00;5053526;28;19926;-72
2023/09/16 06:02:39;;;;;;;;;;;;;;;11.74;100.00;101331.97;5043082;28;19920;-72
2023/09/16 06:05:07;;;;;;;;;;;;;;;11.70;100.00;101312.47;5041112;28;20383;-72
2023/09/16 06:07:33;;;;;;;;;;;;;;;11.89;100.00;101332.63;5044633;28;20523;-72
2023/09/16 06:09:58;;;;;;;;;;;;;;;11.98;100.00;101332.78;5042361;28;19970;-72
2023/09/16 06:12:23;;;;;;;;;;;;;;;12.12;100.00;101336.28;5047749;28;20402;-72
2023/09/16 06:14:48;;;;;;;;;;;;;;;12.23;100.00;101335.44;5044388;28;20404;-72
2023/09/16 06:17:14;;;;;;;;;;;;;;;12.33;100.00;101340.97;5047951;28;19940;-72
2023/09/16 06:19:39;;;;;;;;;;;;;;;12.41;100.00;101344.81;5052994;28;19921;-72
2023/09/16 06:22:04;;;;;;;;;;;;;;;12.51;100.00;101339.56;5042481;28;19920;-72
2023/09/16 06:24:30;;;;;;;;;;;;;;;12.66;100.00;101342.91;5047563;28;20466;-72
2023/09/16 06:26:55;;;;;;;;;;;;;;;12.81;100.00;101346.22;5049829;28;20406;-72
2023/09/16 06:29:20;;;;;;;;;;;;;;;12.94;100.00;101354.19;5053047;28;20367;-72
2023/09/16 06:31:45;;;;;;;;;;;;;;;13.10;100.00;101356.50;5048669;28;20393;-72
2023/09/16 06:34:10;;;;;;;;;;;;;;;13.27;100.00;101343.50;5045096;28;19970;-72
2023/09/16 06:36:38;;;;;;;;;;;;;;;13.45;100.00;101346.56;5050238;28;20876;-72
2023/09/16 06:39:07;;;;;;;;;;;;;;;13.62;100.00;101342.47;5047008;28;20015;-72
2023/09/16 06:41:32;;;;;;;;;;;;;;;13.88;100.00;101339.44;5046158;28;19920;-72
2023/09/16 06:43:57;;;;;;;;;;;;;;;14.10;100.00;101343.84;5048382;28;19928;-72
2023/09/16 06:46:22;;;;;;;;;;;;;;;14.29;100.00;101353.94;5050747;28;19998;-72
2023/09/16 06:48:48;;;;;;;;;;;;;;;14.47;100.00;101353.34;5053751;28;20231;-72
2023/09/16 06:51:13;;;;;;;;;;;;;;;14.64;100.00;101355.47;5057370;22;20075;-72
2023/09/16 06:53:38;;;;;;;;;;;;;;;14.75;100.00;101356.38;5016201;28;19917;-72
2023/09/16 06:56:04;;;;;;;;;;;;;;;14.88;100.00;101362.44;5029578;28;19956;-72
2023/09/16 06:58:29;;;;;;;;;;;;;;;15.00;100.00;101363.22;5030883;28;20007;-72
2023/09/16 07:00:54;;;;;;;;;;;;;;;15.14;100.00;101359.28;5029340;28;19935;-72
2023/09/16 07:03:20;;;;;;;;;;;;;;;15.20;100.00;101338.94;5034583;28;19975;-72
2023/09/16 07:05:46;;;;;;;;;;;;;;;15.44;100.00;101350.25;5028440;28;19975;-72
2023/09/16 07:08:11;;;;;;;;;;;;;;;15.56;100.00;101355.53;5032223;28;20289;-72
2023/09/16 07:10:36;;;;;;;;;;;;;;;15.71;100.00;101356.84;5032069;28;19927;-72
2023/09/16 07:13:02;;;;;;;;;;;;;;;15.85;100.00;101343.91;5031459;28;20071;-72
2023/09/16 07:15:27;;;;;;;;;;;;;;;16.02;100.00;101350.50;5049933;28;19968;-72
2023/09/16 07:17:52;;;;;;;;;;;;;;;16.14;100.00;101343.91;5054715;28;19964;-72
2023/09/16 07:20:17;;;;;;;;;;;;;;;16.23;100.00;101346.75;5030893;28;20046;-72
2023/09/16 07:22:43;;;;;;;;;;;;;;;16.38;100.00;101341.75;5062039;28;19961;-72
2023/09/16 07:25:08;;;;;;;;;;;;;;;16.54;100.00;101344.69;5030154;28;20393;-72
2023/09/16 07:27:33;;;;;;;;;;;;;;;16.72;100.00;101342.09;5047530;28;19935;-72
2023/09/16 07:29:58;;;;;;;;;;;;;;;16.87;100.00;101338.88;5048812;28;20013;-72
2023/09/16 07:32:24;;;;;;;;;;;;;;;17.02;100.00;101339.28;5029218;28;20694;-72
2023/09/16 07:34:49;;;;;;;;;;;;;;;17.12;100.00;101341.94;5046588;28;20019;-72
2023/09/16 07:37:14;;;;;;;;;;;;;;;17.33;100.00;101337.13;5045130;28;19961;-72
2023/09/16 07:39:39;;;;;;;;;;;;;;;17.46;100.00;101344.03;5025027;28;20200;-72
2023/09/16 07:42:05;;;;;;;;;;;;;;;17.62;100.00;101349.63;5023928;28;19934;-72
2023/09/16 07:44:30;;;;;;;;;;;;;;;17.75;100.00;101346.53;5040370;28;19917;-72
2023/09/16 07:46:55;;;;;;;;;;;;;;;17.89;100.00;101339.72;5042353;28;20009;-73
2023/09/16 07:49:20;;;;;;;;;;;;;;;18.04;100.00;101341.94;5039610;28;19924;-72
2023/09/16 07:51:46;;;;;;;;;;;;;;;18.19;100.00;101345.78;5022154;28;19968;-72
2023/09/16 07:54:15;;;;;;;;;;;;;;;18.33;100.00;101346.25;5041137;28;20217;-73
2023/09/16 07:56:40;;;;;;;;;;;;;;;18.46;100.00;101349.38;5039994;28;19920;-73
2023/09/16 07:59:05;;;;;;;;;;;;;;;18.62;100.00;101351.34;5044178;28;20056;-72
2023/09/16 08:01:30;;;;;;;;;;;;;;;18.77;100.00;101350.78;5050522;28;19917;-69
2023/09/16 08:03:56;;;;;;;;;;;;;;;18.88;100.00;101345.91;5048315;28;19936;-72
2023/09/16 08:06:21;;;;;;;;;;;;;;;19.06;100.00;101349.59;5041923;28;20286;-72
2023/09/16 08:08:49;;;;;;;;;;;;;;;19.17;100.00;101358.31;5049303;28;20023;-72
2023/09/16 08:11:14;;;;;;;;;;;;;;;19.27;100.00;101360.91;5024056;28;19924;-72
2023/09/16 08:13:39;;;;;;;;;;;;;;;19.43;100.00;101353.81;5028050;28;20005;-72
2023/09/16 08:16:04;;;;;;;;;;;;;;;19.54;100.00;101364.41;5042600;28;19928;-72
2023/09/16 08:18:30;;;;;;;;;;;;;;;19.60;100.00;101355.53;5041736;28;19920;-73
2023/09/16 08:20:55;;;;;;;;;;;;;;;19.67;100.00;101357.59;5047842;28;20107;-72
2023/09/16 08:23:20;;;;;;;;;;;;;;;19.79;100.00;101354.38;5046998;28;19966;-73
2023/09/16 08:25:45;;;;;;;;;;;;;;;19.83;100.00;101341.31;5028197;28;19915;-72
2023/09/16 08:28:11;;;;;;;;;;;;;;;20.07;100.00;101356.84;5062372;28;19970;-72
2023/09/16 08:30:36;;;;;;;;;;;;;;;20.23;100.00;101358.72;5048721;28;19924;-74
2023/09/16 08:33:01;;;;;;;;;;;;;;;20.35;100.00;101359.22;5048402;28;19963;-72
2023/09/16 08:35:27;;;;;;;;;;;;;;;20.42;100.00;101355.81;5049955;28;19929;-73
2023/09/16 08:37:54;;;;;;;;;;;;;;;20.50;100.00;101359.38;5050232;28;20328;-74
2023/09/16 08:40:20;;;;;;;;;;;;;;;20.42;100.00;101356.66;5061336;28;20122;-72
2023/09/16 08:42:46;;;;;;;;;;;;;;;20.63;100.00;101361.56;5028793;28;19928;-76
2023/09/16 08:45:15;;;;;;;;;;;;;;;20.79;100.00;101362.59;5044289;28;19924;-73
2023/09/16 08:47:42;;;;;;;;;;;;;;;20.87;100.00;101367.19;5044074;28;19924;-72
2023/09/16 08:50:08;;;;;;;;;;;;;;;20.94;100.00;101363.56;5043124;28;19970;-72
2023/09/16 08:52:48;;;;;;;;;;;;;;;20.93;100.00;101367.31;5051244;28;19967;-72
2023/09/16 08:55:14;;;;;;;;;;;;;;;21.16;100.00;101363.00;5059042;28;19922;-70
2023/09/16 08:57:47;;;;;;;;;;;;;;;21.31;100.00;101363.09;5049713;28;19924;-70
2023/09/16 09:00:13;;;;;;;;;;;;;;;21.32;100.00;101362.06;5078851;28;20365;-68
2023/09/16 09:02:38;;;;;;;;;;;;;;;21.35;100.00;101370.75;5049818;28;19999;-69
2023/09/16 09:05:06;;;;;;;;;;;;;;;21.41;100.00;101370.03;5049062;28;19920;-69
2023/09/16 09:07:32;;;;;;;;;;;;;;;21.51;100.00;101364.34;5049078;28;19931;-69
2023/09/16 09:09:57;;;;;;;;;;;;;;;21.54;100.00;101364.00;5049970;28;19971;-68
2023/09/16 09:12:22;;;;;;;;;;;;;;;21.70;100.00;101367.69;5050121;28;20389;-69
2023/09/16 09:14:47;;;;;;;;;;;;;;;21.71;100.00;101363.91;5045426;28;20016;-69
2023/09/16 09:17:13;;;;;;;;;;;;;;;21.75;100.00;101362.53;5047560;28;19943;-68
2023/09/16 09:19:38;;;;;;;;;;;;;;;21.92;100.00;101367.88;5044044;28;19956;-69
2023/09/16 09:22:03;;;;;;;;;;;;;;;21.84;100.00;101361.44;5051255;28;20007;-69
2023/09/16 09:24:28;;;;;;;;;;;;;;;22.10;100.00;101368.44;5046945;28;19920;-69
2023/09/16 09:26:54;;;;;;;;;;;;;;;22.24;100.00;101360.44;5047854;28;19925;-69
2023/09/16 09:29:20;;;;;;;;;;;;;;;22.38;100.00;101367.81;5045604;28;19921;-70
2023/09/16 09:31:45;;;;;;;;;;;;;;;22.40;100.00;101362.19;5051037;28;19920;-68
2023/09/16 09:34:14;;;;;;;;;;;;;;;22.65;100.00;101368.28;5047542;28;19917;-68
2023/09/16 09:36:40;;;;;;;;;;;;;;;22.61;100.00;101362.34;5053399;28;20413;-72
2023/09/16 09:39:05;;;;;;;;;;;;;;;22.88;100.00;101367.38;5044816;28;19989;-72
2023/09/16 09:41:41;;;;;;;;;;;;;;;23.11;100.00;101370.00;5044304;28;20011;-72
2023/09/16 09:44:06;;;;;;;;;;;;;;;23.27;100.00;101371.72;5045882;28;19920;-73
2023/09/16 09:46:32;;;;;;;;;;;;;;;23.52;100.00;101366.75;5064387;28;20271;-72
2023/09/16 09:48:57;;;;;;;;;;;;;;;23.47;100.00;101366.50;5052071;28;20629;-72
2023/09/16 09:51:22;;;;;;;;;;;;;;;23.22;100.00;101376.91;5048273;28;20486;-72
2023/09/16 09:53:47;;;;;;;;;;;;;;;23.28;100.00;101372.56;5037232;28;20499;-72
2023/09/16 09:56:13;;;;;;;;;;;;;;;23.61;100.00;101374.84;5045981;28;20446;-72
2023/09/16 09:58:38;;;;;;;;;;;;;;;23.85;100.00;101376.38;5046424;28;19920;-70
2023/09/16 10:01:03;;;;;;;;;;;;;;;23.98;100.00;101375.72;5046145;28;20394;-70
2023/09/16 10:03:28;;;;;;;;;;;;;;;23.63;100.00;101381.84;5046992;28;20436;-72
2023/09/16 10:05:55;;;;;;;;;;;;;;;23.61;100.00;101377.59;5048091;28;20473;-72
2023/09/16 10:08:21;;;;;;;;;;;;;;;23.94;100.00;101377.09;5066139;28;19928;-74
2023/09/16 10:10:47;;;;;;;;;;;;;;;24.06;100.00;101377.47;5050249;28;20014;-72
2023/09/16 10:13:12;;;;;;;;;;;;;;;24.30;100.00;101383.59;5048005;28;19927;-72
2023/09/16 10:15:37;;;;;;;;;;;;;;;24.36;100.00;101380.91;5048751;28;19920;-70
2023/09/16 10:18:03;;;;;;;;;;;;;;;24.35;100.00;101375.59;5041477;28;19924;-70
2023/09/16 10:20:29;;;;;;;;;;;;;;;24.42;100.00;101371.88;5047464;28;20027;-70
2023/09/16 10:22:54;;;;;;;;;;;;;;;24.26;99.78;101377.66;5050099;28;20445;-70
2023/09/16 10:25:19;;;;;;;;;;;;;;;24.02;96.59;101374.28;5048487;28;20388;-70
2023/09/16 10:27:52;;;;;;;;;;;;;;;23.99;100.00;101371.91;5041348;28;19928;-69
2023/09/16 10:30:17;;;;;;;;;;;;;;;23.83;100.00;101377.63;5039768;28;19920;-70
2023/09/16 10:32:42;;;;;;;;;;;;;;;23.71;98.11;101380.00;5046431;28;19952;-70
2023/09/16 10:35:07;;;;;;;;;;;;;;;23.72;100.00;101368.88;5040120;28;19948;-70
2023/09/16 10:37:33;;;;;;;;;;;;;;;23.91;100.00;101380.22;5048365;28;20015;-72
2023/09/16 10:39:59;;;;;;;;;;;;;;;23.96;100.00;101381.38;5044104;28;20428;-70
2023/09/16 10:42:24;;;;;;;;;;;;;;;24.11;100.00;101364.00;5047946;28;19952;-70
2023/09/16 10:44:49;;;;;;;;;;;;;;;24.70;96.28;101370.19;5044033;28;19944;-70
2023/09/16 10:47:16;;;;;;;;;;;;;;;25.25;95.44;101374.97;5030141;28;20350;-71
2023/09/16 10:49:41;;;;;;;;;;;;;;;25.66;98.51;101368.56;5051701;28;19925;-71
2023/09/16 10:52:08;;;;;;;;;;;;;;;25.99;88.76;101367.78;5044239;28;19920;-71
2023/09/16 10:54:45;;;;;;;;;;;;;;;26.51;79.51;101350.66;5040994;28;20262;-70
2023/09/16 10:57:13;;;;;;;;;;;;;;;26.35;77.64;101366.53;5038731;28;19974;-71
2023/09/16 10:59:38;;;;;;;;;;;;;;;26.83;70.97;101361.88;5046230;28;19927;-71
2023/09/16 11:02:06;;;;;;;;;;;;;;;27.17;78.74;101353.50;5048256;28;19913;-70
2023/09/16 11:04:31;;;;;;;;;;;;;;;27.13;65.47;101353.09;5044137;28;19920;-72
2023/09/16 11:06:57;;;;;;;;;;;;;;;27.42;71.88;101352.75;5047543;28;19963;-71
2023/09/16 11:09:24;;;;;;;;;;;;;;;27.27;66.54;101359.41;5040598;28;20272;-71
2023/09/16 11:11:49;;;;;;;;;;;;;;;27.34;73.48;101349.16;5042044;28;19947;-71
2023/09/16 11:14:14;;;;;;;;;;;;;;;27.50;71.31;101347.03;5044372;28;19920;-71
2023/09/16 11:16:44;;;;;;;;;;;;;;;28.01;67.01;101338.84;5046218;28;19972;-73
2023/09/16 11:19:14;;;;;;;;;;;;;;;28.64;67.03;101339.75;5040101;28;20295;-73
2023/09/16 11:21:40;;;;;;;;;;;;;;;29.20;61.63;101343.41;5039594;28;19944;-74
2023/09/16 11:24:05;;;;;;;;;;;;;;;28.44;58.29;101341.69;5042337;28;20520;-73
2023/09/16 11:26:35;;;;;;;;;;;;;;;28.79;57.39;101340.28;5047390;28;19928;-73
2023/09/16 11:29:00;;;;;;;;;;;;;;;28.47;60.51;101334.84;5049107;28;19924;-73
2023/09/16 11:31:25;;;;;;;;;;;;;;;29.28;62.30;101333.94;5054625;28;19969;-72
2023/09/16 11:33:51;;;;;;;;;;;;;;;29.81;58.23;101340.66;5047395;28;19967;-73
2023/09/16 11:36:16;;;;;;;;;;;;;;;29.95;56.70;101326.63;5054425;28;19921;-73
2023/09/16 11:39:00;;;;;;;;;;;;;;;30.34;51.00;101330.66;5047515;28;19928;-73
2023/09/16 11:41:26;;;;;;;;;;;;;;;30.89;54.12;101333.28;5046804;28;19924;-73
2023/09/16 11:43:51;;;;;;;;;;;;;;;31.81;47.45;101323.19;5043177;28;19921;-74
2023/09/16 11:46:16;;;;;;;;;;;;;;;31.33;48.11;101322.56;5031150;28;20728;-73
2023/09/16 11:48:55;;;;;;;;;;;;;;;31.66;49.38;101318.16;5027128;28;20341;-74
2023/09/16 11:51:23;;;;;;;;;;;;;;;31.02;47.10;101315.53;5046846;28;19969;-74
2023/09/16 11:53:49;;;;;;;;;;;;;;;31.91;46.61;101322.53;5054437;28;20109;-73
2023/09/16 11:56:15;;;;;;;;;;;;;;;31.50;44.58;101319.84;5051298;28;20377;-74
2023/09/16 11:58:41;;;;;;;;;;;;;;;30.59;50.96;101317.69;5051064;28;19929;-74
2023/09/16 12:01:06;;;;;;;;;;;;;;;30.76;46.99;101318.63;5052793;28;20023;-73
2023/09/16 12:03:31;;;;;;;;;;;;;;;31.32;48.28;101320.03;5042246;28;20039;-73
2023/09/16 12:05:57;;;;;;;;;;;;;;;31.68;45.86;101316.00;5047338;28;20088;-76
2023/09/16 12:08:23;;;;;;;;;;;;;;;31.95;48.98;101309.00;5052418;28;19947;-73
2023/09/16 12:10:49;;;;;;;;;;;;;;;32.18;47.15;101310.72;5050008;28;20925;-73
2023/09/16 12:13:25;;;;;;;;;;;;;;;32.21;47.25;101306.63;5047915;28;19928;-73
2023/09/16 12:15:50;;;;;;;;;;;;;;;32.87;43.39;101312.34;5052125;28;20601;-73
2023/09/16 12:18:15;;;;;;;;;;;;;;;33.91;42.04;101313.47;5054938;28;20007;-72
2023/09/16 12:20:40;;;;;;;;;;;;;;;34.30;41.70;101307.59;5049885;28;19965;-72